Time;durP1;ratioP1;P1;durP2;ratioP2;P2;SDS_P1;SDS_P2;PMS_P1;PMS_P2;Temp;Humidity;BMP_temperature;BMP_pressure;BME280_temperature;BME280_humidity;BME280_pressure;Samples;Min_cycle;Max_cycle;Signal;HPM_P1;HPM_P2
2023/05/15 00:01:21;;;;;;;;;;;12.80;99.90;;;;;;5069063;28;20041;-75
2023/05/15 00:03:47;;;;;;;57.75;28.92;;;12.80;99.90;;;;;;5034634;28;20445;-76
2023/05/15 00:06:13;;;;;;;;;;;12.70;99.90;;;;;;5053721;28;20094;-76
2023/05/15 00:08:38;;;;;;;55.80;29.05;;;12.80;99.90;;;;;;5088699;28;20361;-77
2023/05/15 00:11:04;;;;;;;60.72;30.85;;;12.70;99.90;;;;;;5071648;28;20496;-76
2023/05/15 00:13:30;;;;;;;60.25;29.85;;;12.70;99.90;;;;;;5054344;28;20090;-76
2023/05/15 00:15:56;;;;;;;61.35;31.50;;;12.80;99.90;;;;;;5085477;28;20044;-76
2023/05/15 00:18:21;;;;;;;57.13;30.80;;;12.80;99.90;;;;;;5087009;28;20053;-76
2023/05/15 00:20:47;;;;;;;69.53;30.88;;;12.80;99.90;;;;;;5070205;28;20063;-75
2023/05/15 00:23:13;;;;;;;63.85;31.42;;;12.80;99.90;;;;;;5067335;28;20076;-76
2023/05/15 00:25:39;;;;;;;63.58;31.55;;;12.80;99.90;;;;;;5086000;28;20126;-76
2023/05/15 00:28:04;;;;;;;65.43;32.47;;;12.90;99.90;;;;;;5086814;28;20056;-75
2023/05/15 00:30:30;;;;;;;65.30;32.80;;;12.90;99.90;;;;;;5088314;28;20080;-76
2023/05/15 00:32:56;;;;;;;67.43;32.47;;;12.80;99.90;;;;;;5087812;28;20040;-76
2023/05/15 00:35:22;;;;;;;64.15;32.22;;;12.80;99.90;;;;;;5054700;28;20040;-75
2023/05/15 00:37:47;;;;;;;71.82;33.72;;;12.70;99.90;;;;;;5083516;28;20490;-76
2023/05/15 00:40:20;;;;;;;69.53;33.53;;;12.60;99.90;;;;;;5022694;28;20078;-76
2023/05/15 00:42:51;;;;;;;74.82;35.22;;;12.60;99.90;;;;;;5050997;28;20072;-77
2023/05/15 00:45:18;;;;;;;76.45;34.67;;;12.60;99.90;;;;;;5067215;28;20049;-76
2023/05/15 00:47:45;;;;;;;75.13;34.20;;;12.60;99.90;;;;;;5050798;28;20052;-76
2023/05/15 00:50:11;;;;;;;68.47;33.58;;;12.60;99.90;;;;;;5050886;28;20045;-76
2023/05/15 00:52:37;;;;;;;74.57;34.33;;;12.60;99.90;;;;;;5050272;28;20049;-75
2023/05/15 00:55:03;;;;;;;;;;;12.60;99.90;;;;;;5050533;28;20060;-76
2023/05/15 00:57:30;;;;;;;75.18;33.75;;;12.60;99.90;;;;;;5037957;28;20053;-75
2023/05/15 00:59:56;;;;;;;74.00;33.80;;;12.60;99.90;;;;;;5068462;28;20390;-81
2023/05/15 01:02:22;;;;;;;72.13;34.28;;;12.60;99.90;;;;;;5065682;28;20049;-76
2023/05/15 01:04:48;;;;;;;74.93;33.90;;;12.60;99.90;;;;;;5068483;28;20040;-76
2023/05/15 01:07:14;;;;;;;77.15;34.83;;;12.60;99.90;;;;;;5089933;28;20110;-77
2023/05/15 01:09:44;;;;;;;79.90;35.17;;;12.70;99.90;;;;;;5090566;28;20082;-77
2023/05/15 01:12:13;;;;;;;76.55;35.97;;;12.60;99.90;;;;;;5070196;28;20085;-76
2023/05/15 01:14:39;;;;;;;71.82;34.80;;;12.60;99.90;;;;;;5085596;28;20092;-77
2023/05/15 01:17:05;;;;;;;75.97;36.78;;;12.50;99.90;;;;;;5089903;28;20131;-77
2023/05/15 01:19:30;;;;;;;101.72;36.90;;;12.50;99.90;;;;;;5073180;28;20047;-78
2023/05/15 01:22:11;;;;;;;87.53;33.33;;;12.40;99.90;;;;;;5040877;28;20040;-80
2023/05/15 01:25:04;;;;;;;81.85;32.72;;;12.40;99.90;;;;;;5055864;28;20114;-77
2023/05/15 01:27:47;;;;;;;82.57;33.00;;;12.30;99.90;;;;;;5080644;28;20130;-77
2023/05/15 01:30:28;;;;;;;80.75;34.35;;;12.30;99.90;;;;;;5082880;28;20170;-77
2023/05/15 01:33:10;;;;;;;79.55;32.75;;;12.20;99.90;;;;;;5064276;28;20044;-77
2023/05/15 01:35:49;;;;;;;84.10;34.58;;;12.20;99.90;;;;;;5088739;28;20060;-77
2023/05/15 01:38:26;;;;;;;96.57;34.00;;;12.20;99.90;;;;;;5089483;28;20054;-77
2023/05/15 01:40:58;;;;;;;116.75;34.55;;;12.20;99.90;;;;;;5090380;28;20056;-77
2023/05/15 01:43:28;;;;;;;105.97;35.55;;;12.10;99.90;;;;;;5089405;28;20072;-76
2023/05/15 01:45:55;;;;;;;93.68;35.38;;;12.10;99.90;;;;;;5064800;28;20049;-77
2023/05/15 01:48:21;;;;;;;95.68;37.72;;;12.00;99.90;;;;;;5088828;28;20411;-76
2023/05/15 01:50:50;;;;;;;106.93;35.35;;;12.00;99.90;;;;;;5069753;28;20555;-77
2023/05/15 01:53:17;;;;;;;113.03;35.70;;;12.00;99.90;;;;;;5079538;28;20094;-76
2023/05/15 01:55:43;;;;;;;95.30;35.33;;;11.90;99.90;;;;;;5069780;28;20079;-77
2023/05/15 01:58:09;;;;;;;87.20;34.70;;;11.90;99.90;;;;;;5078836;28;20048;-77
2023/05/15 02:00:36;;;;;;;89.93;34.83;;;11.90;99.90;;;;;;5069292;28;20135;-76
2023/05/15 02:03:04;;;;;;;99.75;35.40;;;11.90;99.90;;;;;;5084253;28;20048;-79
2023/05/15 02:05:31;;;;;;;93.00;35.03;;;11.80;99.90;;;;;;5082515;28;20052;-77
2023/05/15 02:07:58;;;;;;;91.10;35.97;;;11.80;99.90;;;;;;5080670;28;20048;-76
2023/05/15 02:10:24;;;;;;;88.70;35.78;;;11.70;99.90;;;;;;5089279;28;20072;-77
2023/05/15 02:12:51;;;;;;;85.22;33.80;;;11.70;99.90;;;;;;5089153;28;20075;-77
2023/05/15 02:15:17;;;;;;;70.47;32.60;;;11.70;99.90;;;;;;5089126;28;20398;-76
2023/05/15 02:17:43;;;;;;;;;;;11.70;99.90;;;;;;5061668;28;20121;-77
2023/05/15 02:20:09;;;;;;;85.65;32.58;;;11.80;99.90;;;;;;5086128;28;20369;-77
2023/05/15 02:22:35;;;;;;;78.80;33.22;;;11.80;99.90;;;;;;5072380;28;20048;-77
2023/05/15 02:25:01;;;;;;;80.30;31.88;;;11.80;99.90;;;;;;5068696;28;20059;-77
2023/05/15 02:27:31;;;;;;;76.57;31.83;;;11.80;99.90;;;;;;5045834;28;20508;-78
2023/05/15 02:30:25;;;;;;;68.00;31.10;;;11.70;99.90;;;;;;5073076;28;20134;-76
2023/05/15 02:33:21;;;;;;;81.97;30.92;;;11.70;99.90;;;;;;5089290;28;20051;-77
2023/05/15 02:36:05;;;;;;;98.40;31.08;;;11.80;99.90;;;;;;5089394;28;20138;-76
2023/05/15 02:38:47;;;;;;;67.05;30.58;;;11.80;99.90;;;;;;5089812;28;20058;-76
2023/05/15 02:41:15;;;;;;;112.88;32.33;;;11.70;99.90;;;;;;5089609;28;20090;-77
2023/05/15 02:43:42;;;;;;;146.77;31.45;;;11.70;99.90;;;;;;5055458;28;20530;-76
2023/05/15 02:46:09;;;;;;;117.78;31.77;;;11.60;99.90;;;;;;5072600;28;20072;-77
2023/05/15 02:48:38;;;;;;;120.70;31.95;;;11.60;99.90;;;;;;5068958;28;20497;-76
2023/05/15 02:51:05;;;;;;;115.55;32.15;;;11.50;99.90;;;;;;5068552;28;20131;-78
2023/05/15 02:53:32;;;;;;;124.07;33.28;;;11.50;99.90;;;;;;5063930;28;20051;-77
2023/05/15 02:55:58;;;;;;;116.40;33.05;;;11.40;99.90;;;;;;5069520;28;20044;-76
2023/05/15 02:58:23;;;;;;;82.30;30.35;;;11.50;99.90;;;;;;5051379;28;20523;-77
2023/05/15 03:00:49;;;;;;;66.22;31.20;;;11.60;99.90;;;;;;5052635;28;20044;-76
2023/05/15 03:03:15;;;;;;;77.90;29.23;;;11.60;99.90;;;;;;5068681;28;20155;-77
2023/05/15 03:05:41;;;;;;;72.85;30.20;;;11.60;99.90;;;;;;5052249;28;20045;-76
2023/05/15 03:08:06;;;;;;;67.03;30.17;;;11.60;99.90;;;;;;5034917;28;20049;-79
2023/05/15 03:10:32;;;;;;;66.68;29.55;;;11.70;99.90;;;;;;5068556;28;20060;-77
2023/05/15 03:12:58;;;;;;;60.42;29.13;;;11.70;99.90;;;;;;5031940;28;20057;-77
2023/05/15 03:15:24;;;;;;;69.13;27.70;;;11.70;99.90;;;;;;5048623;28;20037;-77
2023/05/15 03:17:49;;;;;;;105.63;29.55;;;11.70;99.90;;;;;;5048946;28;20128;-77
2023/05/15 03:20:15;;;;;;;82.43;29.13;;;11.70;99.90;;;;;;5050601;28;20061;-78
2023/05/15 03:22:41;;;;;;;79.97;30.83;;;11.70;99.90;;;;;;5052637;28;20059;-77
2023/05/15 03:25:09;;;;;;;78.63;28.50;;;11.70;99.90;;;;;;5085848;28;20044;-77
2023/05/15 03:27:35;;;;;;;118.57;29.48;;;11.70;99.90;;;;;;5066309;28;20085;-77
2023/05/15 03:30:01;;;;;;;210.82;32.63;;;11.70;99.90;;;;;;5085449;28;20040;-76
2023/05/15 03:32:27;;;;;;;;;;;11.70;99.90;;;;;;5086196;28;20045;-76
2023/05/15 03:34:53;;;;;;;113.80;28.60;;;11.60;99.90;;;;;;5053555;28;19947;-78
2023/05/15 03:37:18;;;;;;;172.40;30.42;;;11.60;99.90;;;;;;5068220;28;20049;-77
2023/05/15 03:39:44;;;;;;;95.60;29.33;;;11.60;99.90;;;;;;5036266;28;20061;-77
2023/05/15 03:42:10;;;;;;;175.82;32.50;;;11.50;99.90;;;;;;5052287;28;20055;-81
2023/05/15 03:44:35;;;;;;;116.20;29.50;;;11.50;99.90;;;;;;5051716;28;20045;-77
2023/05/15 03:47:01;;;;;;;155.05;30.95;;;11.60;99.90;;;;;;5019578;28;20429;-78
2023/05/15 03:49:27;;;;;;;219.10;32.95;;;11.60;99.90;;;;;;5051626;28;20119;-77
2023/05/15 03:51:53;;;;;;;114.72;31.17;;;11.50;99.90;;;;;;5081695;28;20504;-77
2023/05/15 03:54:18;;;;;;;90.97;30.08;;;11.50;99.90;;;;;;5068608;28;20379;-76
2023/05/15 03:56:44;;;;;;;101.63;29.58;;;11.50;99.90;;;;;;5052571;28;20037;-76
2023/05/15 03:59:10;;;;;;;64.80;29.13;;;11.50;99.90;;;;;;5073567;28;20402;-81
2023/05/15 04:01:35;;;;;;;69.10;29.08;;;11.50;99.90;;;;;;5038984;28;20106;-77
2023/05/15 04:04:02;;;;;;;80.15;29.50;;;11.60;99.90;;;;;;5071864;28;20055;-76
2023/05/15 04:06:28;;;;;;;85.75;28.52;;;11.60;99.90;;;;;;5071468;28;20512;-76
2023/05/15 04:08:53;;;;;;;140.82;30.75;;;11.60;99.90;;;;;;5055620;28;20133;-76
2023/05/15 04:11:20;;;;;;;167.02;30.38;;;11.60;99.90;;;;;;5071619;28;20063;-76
2023/05/15 04:13:46;;;;;;;201.75;31.60;;;11.60;99.90;;;;;;5054660;28;20044;-76
2023/05/15 04:16:11;;;;;;;154.43;30.63;;;11.50;99.90;;;;;;5088621;28;20036;-80
2023/05/15 04:18:37;;;;;;;121.60;30.17;;;11.40;99.90;;;;;;5068981;28;20045;-77
2023/05/15 04:21:03;;;;;;;100.25;28.88;;;11.30;99.90;;;;;;5071156;28;20539;-77
2023/05/15 04:23:28;;;;;;;173.02;30.88;;;11.30;99.90;;;;;;5034838;28;20556;-77
2023/05/15 04:25:54;;;;;;;195.40;30.42;;;11.30;99.90;;;;;;5035178;28;20423;-76
2023/05/15 04:28:20;;;;;;;156.30;30.60;;;11.20;99.90;;;;;;5050597;28;20091;-76
2023/05/15 04:30:46;;;;;;;159.57;30.55;;;11.20;99.90;;;;;;5035137;28;20548;-76
2023/05/15 04:33:12;;;;;;;158.65;30.50;;;11.20;99.90;;;;;;5052863;28;20080;-80
2023/05/15 04:35:38;;;;;;;152.43;30.40;;;11.20;99.90;;;;;;5038128;28;20045;-76
2023/05/15 04:38:03;;;;;;;71.75;27.80;;;11.10;99.90;;;;;;5023902;28;20147;-76
2023/05/15 04:40:29;;;;;;;132.82;29.70;;;11.10;99.90;;;;;;5088072;28;20048;-78
2023/05/15 04:42:55;;;;;;;118.15;29.42;;;11.10;99.90;;;;;;5053714;28;20044;-77
2023/05/15 04:45:21;;;;;;;141.07;30.20;;;11.20;99.90;;;;;;5051725;28;20037;-76
2023/05/15 04:47:46;;;;;;;83.15;29.88;;;11.20;99.90;;;;;;5051411;28;20083;-76
2023/05/15 04:50:12;;;;;;;70.75;30.10;;;11.10;99.90;;;;;;5018513;28;20049;-79
2023/05/15 04:52:37;;;;;;;76.13;29.83;;;11.10;99.90;;;;;;5064446;28;20064;-76
2023/05/15 04:55:04;;;;;;;66.40;26.63;;;11.20;99.90;;;;;;5035251;28;20106;-76
2023/05/15 04:57:29;;;;;;;;;;;11.20;99.90;;;;;;5067554;28;20049;-76
2023/05/15 04:59:56;;;;;;;78.20;29.25;;;11.20;99.90;;;;;;5050774;28;19931;-77
2023/05/15 05:02:23;;;;;;;65.40;28.50;;;11.20;99.90;;;;;;5017231;28;20192;-77
2023/05/15 05:04:49;;;;;;;77.85;30.02;;;11.20;99.90;;;;;;5051808;28;20045;-77
2023/05/15 05:07:15;;;;;;;;;;;11.20;99.90;;;;;;5051274;28;20132;-80
2023/05/15 05:09:40;;;;;;;72.65;29.05;;;11.20;99.90;;;;;;5058098;28;20383;-77
2023/05/15 05:12:07;;;;;;;67.15;30.20;;;11.10;99.90;;;;;;5071192;28;20052;-77
2023/05/15 05:14:34;;;;;;;73.20;29.55;;;11.10;99.90;;;;;;5069561;28;20169;-76
2023/05/15 05:16:59;;;;;;;;;;;11.10;99.90;;;;;;5037952;28;20059;-77
2023/05/15 05:19:27;;;;;;;79.45;31.23;;;11.10;99.90;;;;;;5086840;28;19920;-77
2023/05/15 05:21:53;;;;;;;71.63;31.38;;;11.00;99.90;;;;;;5037631;28;20152;-76
2023/05/15 05:24:18;;;;;;;;;;;11.00;99.90;;;;;;5070711;28;20053;-76
2023/05/15 05:26:44;;;;;;;53.28;27.52;;;11.00;99.90;;;;;;5087775;28;19924;-77
2023/05/15 05:29:10;;;;;;;58.40;27.67;;;11.00;99.90;;;;;;5052136;28;20052;-77
2023/05/15 05:31:36;;;;;;;57.65;28.38;;;11.10;99.90;;;;;;5070033;28;20045;-77
2023/05/15 05:34:01;;;;;;;58.08;27.77;;;11.20;99.90;;;;;;5037145;28;20037;-76
2023/05/15 05:36:27;;;;;;;54.75;27.92;;;11.20;99.90;;;;;;5082092;28;20064;-77
2023/05/15 05:38:53;;;;;;;56.50;26.90;;;11.30;99.90;;;;;;5050608;28;20056;-77
2023/05/15 05:41:18;;;;;;;51.53;27.63;;;11.30;99.90;;;;;;5066819;28;20045;-78
2023/05/15 05:43:44;;;;;;;60.35;28.27;;;11.40;99.90;;;;;;5066123;28;20501;-77
2023/05/15 05:46:10;;;;;;;47.60;25.90;;;11.40;99.90;;;;;;5060217;28;20500;-77
2023/05/15 05:48:35;;;;;;;58.83;27.55;;;11.50;99.90;;;;;;5066370;28;20072;-76
2023/05/15 05:51:02;;;;;;;64.25;28.83;;;11.50;99.90;;;;;;5070052;28;20041;-76
2023/05/15 05:53:27;;;;;;;54.88;27.50;;;11.50;99.90;;;;;;5057928;28;20126;-76
2023/05/15 05:55:56;;;;;;;52.15;27.45;;;11.50;99.90;;;;;;5049850;28;20174;-77
2023/05/15 05:58:22;;;;;;;49.97;25.92;;;11.50;99.90;;;;;;5080067;28;20514;-76
2023/05/15 06:00:48;;;;;;;50.03;26.60;;;11.50;99.90;;;;;;5086142;28;20387;-76
2023/05/15 06:03:14;;;;;;;47.38;25.33;;;11.60;99.90;;;;;;5036423;28;20052;-76
2023/05/15 06:05:39;;;;;;;48.33;25.00;;;11.70;99.90;;;;;;5052131;28;20420;-76
2023/05/15 06:08:05;;;;;;;49.40;25.63;;;11.70;99.90;;;;;;5053013;28;20131;-72
2023/05/15 06:10:31;;;;;;;49.90;25.67;;;11.70;99.90;;;;;;5067031;28;20052;-74
2023/05/15 06:12:57;;;;;;;49.78;26.13;;;11.70;99.90;;;;;;5066710;28;20037;-74
2023/05/15 06:15:22;;;;;;;53.00;27.58;;;11.70;99.90;;;;;;5052315;28;20131;-75
2023/05/15 06:17:48;;;;;;;48.33;25.33;;;11.70;99.90;;;;;;5069502;28;20045;-78
2023/05/15 06:20:14;;;;;;;46.00;23.27;;;11.70;99.90;;;;;;5086701;28;20088;-78
2023/05/15 06:22:40;;;;;;;40.97;22.58;;;11.90;99.90;;;;;;5077957;28;20045;-78
2023/05/15 06:25:12;;;;;;;46.90;23.00;;;11.60;99.90;;;;;;5033040;28;20046;-76
2023/05/15 06:27:39;;;;;;;50.92;23.95;;;11.60;99.90;;;;;;5061365;28;20078;-78
2023/05/15 06:30:06;;;;;;;46.88;24.52;;;11.60;99.90;;;;;;5069284;28;20055;-77
2023/05/15 06:32:32;;;;;;;43.60;23.15;;;11.50;99.90;;;;;;5067013;28;20057;-77
2023/05/15 06:34:58;;;;;;;45.42;23.60;;;11.50;99.90;;;;;;5069744;28;20387;-78
2023/05/15 06:37:24;;;;;;;51.08;25.60;;;11.50;99.90;;;;;;5076860;28;20607;-77
2023/05/15 06:39:50;;;;;;;49.03;25.40;;;11.50;99.90;;;;;;5069722;28;20052;-77
2023/05/15 06:42:15;;;;;;;51.88;25.95;;;11.40;99.90;;;;;;5052918;28;20053;-78
2023/05/15 06:44:41;;;;;;;46.72;25.38;;;11.30;99.90;;;;;;5051500;28;20036;-77
2023/05/15 06:47:06;;;;;;;46.13;24.88;;;11.20;99.90;;;;;;5086167;28;20428;-76
2023/05/15 06:49:32;;;;;;;49.67;25.70;;;11.20;99.90;;;;;;5085731;28;20060;-77
2023/05/15 06:51:58;;;;;;;46.78;25.48;;;11.10;99.90;;;;;;5069372;28;20051;-77
2023/05/15 06:54:24;;;;;;;50.80;25.92;;;11.10;99.90;;;;;;5066473;28;20087;-76
2023/05/15 06:56:50;;;;;;;49.28;26.05;;;11.10;99.90;;;;;;5085532;28;20149;-77
2023/05/15 06:59:15;;;;;;;50.15;24.98;;;11.30;99.90;;;;;;5065978;28;20099;-77
2023/05/15 07:01:41;;;;;;;49.38;25.30;;;11.40;99.90;;;;;;5059949;28;20049;-77
2023/05/15 07:04:07;;;;;;;47.65;24.45;;;11.50;99.90;;;;;;5052277;28;20118;-78
2023/05/15 07:06:33;;;;;;;44.13;24.50;;;11.70;99.90;;;;;;5085560;28;20071;-80
2023/05/15 07:08:59;;;;;;;47.55;24.88;;;11.90;99.90;;;;;;5056311;28;20131;-72
2023/05/15 07:11:25;;;;;;;45.67;24.08;;;12.00;99.90;;;;;;5072970;28;20135;-74
2023/05/15 07:13:52;;;;;;;43.88;23.33;;;12.00;99.90;;;;;;5072405;28;20044;-73
2023/05/15 07:16:17;;;;;;;40.33;22.55;;;12.20;99.90;;;;;;5072658;28;20044;-73
2023/05/15 07:18:43;;;;;;;41.53;23.38;;;12.30;99.90;;;;;;5072033;28;20504;-72
2023/05/15 07:21:09;;;;;;;37.67;22.55;;;12.40;99.90;;;;;;5089273;28;20048;-79
2023/05/15 07:23:34;;;;;;;42.28;22.73;;;12.50;99.90;;;;;;5086054;28;20052;-77
2023/05/15 07:26:00;;;;;;;44.30;23.65;;;12.60;99.90;;;;;;5078989;28;20083;-78
2023/05/15 07:28:26;;;;;;;39.15;21.92;;;12.70;99.90;;;;;;5071705;28;20054;-76
2023/05/15 07:30:52;;;;;;;34.63;20.67;;;12.70;99.90;;;;;;5092872;28;20087;-77
2023/05/15 07:33:17;;;;;;;38.20;22.10;;;12.70;99.90;;;;;;5089635;28;20361;-77
2023/05/15 07:35:43;;;;;;;39.72;21.55;;;12.70;99.90;;;;;;5063612;28;20119;-77
2023/05/15 07:38:09;;;;;;;34.70;19.05;;;12.70;99.90;;;;;;5071934;28;20076;-77
2023/05/15 07:40:35;;;;;;;31.65;19.67;;;12.70;99.90;;;;;;5053516;28;20159;-76
2023/05/15 07:43:01;;;;;;;33.40;20.67;;;12.70;99.90;;;;;;5055048;28;20128;-77
2023/05/15 07:45:27;;;;;;;32.63;18.95;;;12.80;99.90;;;;;;5103677;28;20050;-76
2023/05/15 07:47:53;;;;;;;30.50;19.00;;;12.80;99.90;;;;;;5090981;28;20109;-76
2023/05/15 07:50:19;;;;;;;32.60;18.90;;;12.80;99.90;;;;;;5091482;28;20052;-76
2023/05/15 07:52:44;;;;;;;30.55;18.77;;;12.90;99.90;;;;;;5091560;28;20036;-77
2023/05/15 07:55:11;;;;;;;32.97;19.13;;;13.00;99.90;;;;;;5092586;28;20044;-84
2023/05/15 07:57:37;;;;;;;28.13;17.10;;;13.00;99.90;;;;;;5074510;28;20093;-81
2023/05/15 08:00:08;;;;;;;30.75;17.90;;;13.00;99.90;;;;;;5080006;28;20044;-80
2023/05/15 08:02:34;;;;;;;29.77;18.00;;;13.10;99.90;;;;;;5060143;28;20069;-80
2023/05/15 08:05:00;;;;;;;29.98;18.63;;;13.10;99.90;;;;;;5061579;28;20070;-80
2023/05/15 08:07:26;;;;;;;30.90;18.40;;;13.20;99.90;;;;;;5082762;28;20074;-78
2023/05/15 08:09:52;;;;;;;32.05;18.05;;;13.30;99.90;;;;;;5087447;28;20420;-77
2023/05/15 08:12:21;;;;;;;32.78;18.75;;;13.30;99.90;;;;;;5092444;28;20540;-77
2023/05/15 08:14:51;;;;;;;30.27;18.45;;;13.40;99.90;;;;;;5074486;28;20059;-78
2023/05/15 08:17:18;;;;;;;34.53;17.90;;;13.40;99.90;;;;;;5098216;28;20059;-78
2023/05/15 08:19:44;;;;;;;29.63;18.17;;;13.50;99.90;;;;;;5074041;28;20059;-78
2023/05/15 08:22:10;;;;;;;31.67;18.50;;;13.50;99.90;;;;;;5063411;28;20036;-78
2023/05/15 08:24:36;;;;;;;26.90;17.58;;;13.60;99.90;;;;;;5071155;28;20049;-75
2023/05/15 08:27:03;;;;;;;;;;;13.70;99.90;;;;;;5041916;28;20070;-78
2023/05/15 08:29:29;;;;;;;26.00;16.08;;;13.80;99.90;;;;;;5076760;28;20014;-77
2023/05/15 08:31:55;;;;;;;26.77;15.93;;;13.80;99.90;;;;;;5074749;28;20579;-77
2023/05/15 08:34:20;;;;;;;23.80;14.77;;;13.90;99.90;;;;;;5092495;28;20044;-77
2023/05/15 08:36:46;;;;;;;24.60;14.50;;;14.00;99.90;;;;;;5089014;28;20078;-78
2023/05/15 08:39:12;;;;;;;24.77;14.40;;;14.10;99.90;;;;;;5091452;28;20094;-77
2023/05/15 08:41:50;;;;;;;21.70;13.93;;;14.10;99.90;;;;;;5084766;28;20127;-78
2023/05/15 08:44:16;;;;;;;19.08;13.18;;;14.20;99.90;;;;;;5069942;28;20045;-78
2023/05/15 08:46:42;;;;;;;20.70;12.90;;;14.30;99.90;;;;;;5089861;28;20124;-73
2023/05/15 08:49:34;;;;;;;20.67;12.23;;;14.50;99.90;;;;;;5060407;28;20494;-72
2023/05/15 08:52:00;;;;;;;19.48;12.40;;;14.50;99.90;;;;;;5030949;28;20127;-77
2023/05/15 08:54:26;;;;;;;18.35;12.25;;;14.60;99.90;;;;;;5045552;28;20120;-72
2023/05/15 12:36:53;;;;;;;13.50;10.07;;;23.60;81.20;;;;;;5107975;27;20162;-77
2023/05/15 12:39:18;;;;;;;16.52;10.02;;;22.80;99.00;;;;;;5107378;28;20077;-78
2023/05/15 12:41:44;;;;;;;15.25;10.32;;;22.90;97.90;;;;;;5070595;28;20052;-78
2023/05/15 12:44:16;;;;;;;15.60;9.95;;;23.40;95.70;;;;;;5119701;28;20050;-76
2023/05/15 12:46:42;;;;;;;14.45;9.98;;;24.00;85.20;;;;;;5133800;27;20059;-76
2023/05/15 12:49:08;;;;;;;12.77;9.25;;;24.40;87.40;;;;;;5080137;28;20378;-79
2023/05/15 12:51:44;;;;;;;14.75;9.15;;;24.80;82.50;;;;;;5103406;28;20049;-85
2023/05/15 12:54:17;;;;;;;12.63;9.70;;;24.80;72.80;;;;;;5120241;28;20059;-85
2023/05/15 12:56:43;;;;;;;15.52;8.60;;;24.60;71.30;;;;;;5087741;28;20083;-85
2023/05/15 12:59:10;;;;;;;13.27;8.00;;;24.20;71.30;;;;;;5102296;28;20105;-85
2023/05/15 13:01:36;;;;;;;13.23;9.73;;;24.20;73.00;;;;;;5120444;28;20056;-85
2023/05/15 13:04:02;;;;;;;14.45;9.15;;;24.60;71.60;;;;;;5117801;28;20058;-86
2023/05/15 13:06:28;;;;;;;12.13;8.07;;;25.10;70.10;;;;;;5102674;28;20083;-85
2023/05/15 13:08:54;;;;;;;11.93;7.75;;;25.50;67.60;;;;;;5086495;28;20488;-81
2023/05/15 13:11:20;;;;;;;10.25;7.25;;;25.80;65.10;;;;;;5086122;28;20048;-86
2023/05/15 13:13:48;;;;;;;10.50;6.93;;;26.00;63.50;;;;;;5068799;28;20055;-87
2023/05/15 13:16:23;;;;;;;10.73;7.88;;;26.30;62.30;;;;;;5085611;28;20048;-86
2023/05/15 13:18:49;;;;;;;11.20;6.93;;;26.60;60.00;;;;;;5069474;28;20109;-85
2023/05/15 13:21:15;;;;;;;13.07;7.65;;;26.60;60.10;;;;;;5087651;28;20044;-85
2023/05/15 13:23:41;;;;;;;10.20;6.63;;;26.70;58.50;;;;;;5089483;28;20043;-86
2023/05/15 13:26:06;;;;;;;10.10;6.57;;;26.70;57.50;;;;;;5103799;28;20040;-85
2023/05/15 13:28:33;;;;;;;9.25;6.80;;;26.90;58.00;;;;;;5068500;28;20040;-85
2023/05/15 13:30:59;;;;;;;9.15;6.30;;;27.50;57.40;;;;;;5085739;28;20544;-80
2023/05/15 13:33:24;;;;;;;10.77;5.93;;;28.10;56.20;;;;;;5089375;28;20051;-85
2023/05/15 13:35:50;;;;;;;10.02;6.05;;;28.20;55.30;;;;;;5071954;28;20535;-85
2023/05/15 13:38:16;;;;;;;10.18;6.43;;;27.80;54.00;;;;;;5101357;28;20094;-80
2023/05/15 13:40:42;;;;;;;11.18;7.18;;;27.80;53.80;;;;;;5069012;28;20059;-81
2023/05/15 13:43:07;;;;;;;11.13;8.00;;;28.20;55.00;;;;;;5072484;28;20052;-82
2023/05/15 13:45:33;;;;;;;10.27;6.88;;;28.60;54.40;;;;;;5093705;28;20046;-82
2023/05/15 13:47:59;;;;;;;10.30;6.88;;;28.90;53.70;;;;;;5079213;28;20053;-82
2023/05/15 13:50:24;;;;;;;8.90;6.13;;;29.40;53.30;;;;;;5076731;28;20101;-81
2023/05/15 13:52:50;;;;;;;10.75;6.47;;;29.80;52.70;;;;;;5092446;28;20052;-81
2023/05/15 13:55:16;;;;;;;11.68;6.78;;;30.30;51.90;;;;;;5089032;28;20458;-81
2023/05/15 13:57:42;;;;;;;9.75;6.65;;;30.60;51.10;;;;;;5057140;28;20617;-82
2023/05/15 14:00:11;;;;;;;9.27;6.28;;;30.50;49.90;;;;;;5090618;28;20036;-82
2023/05/15 14:02:41;;;;;;;10.05;5.43;;;30.40;50.10;;;;;;5075012;28;20136;-81
2023/05/15 14:05:09;;;;;;;12.27;5.95;;;30.50;48.40;;;;;;5074701;28;20040;-82
2023/05/15 14:07:35;;;;;;;9.63;5.60;;;30.70;47.60;;;;;;5089369;28;20036;-81
2023/05/15 14:10:00;;;;;;;9.98;4.85;;;30.90;47.30;;;;;;5062215;28;20071;-82
2023/05/15 14:12:26;;;;;;;7.68;5.32;;;30.80;47.60;;;;;;5089256;28;20078;-82
2023/05/15 14:14:52;;;;;;;9.45;5.10;;;30.80;48.00;;;;;;5061099;28;20078;-82
2023/05/15 14:17:17;;;;;;;9.80;6.47;;;31.00;46.90;;;;;;5073084;28;20494;-82
2023/05/15 14:19:43;;;;;;;10.60;5.95;;;31.30;47.20;;;;;;5074749;28;20502;-78
2023/05/15 14:22:10;;;;;;;9.75;6.65;;;31.50;47.00;;;;;;5074235;28;20120;-78
2023/05/15 14:24:35;;;;;;;8.05;5.60;;;31.30;46.50;;;;;;5091069;28;20074;-87
2023/05/15 14:27:01;;;;;;;8.45;5.75;;;30.80;46.30;;;;;;5092400;28;20071;-79
2023/05/15 14:29:27;;;;;;;8.63;5.68;;;30.00;47.40;;;;;;5073090;28;20420;-83
2023/05/15 14:31:52;;;;;;;9.73;6.72;;;29.10;48.40;;;;;;5091499;28;20047;-81
2023/05/15 14:34:21;;;;;;;11.45;6.72;;;27.80;49.70;;;;;;5072816;28;20101;-82
2023/05/15 14:36:47;;;;;;;11.88;7.00;;;26.50;51.50;;;;;;5089735;28;20469;-82
2023/05/15 14:39:17;;;;;;;10.07;7.65;;;25.50;53.40;;;;;;5087125;28;20481;-83
2023/05/15 14:41:43;;;;;;;21.38;8.70;;;24.50;55.60;;;;;;5073903;28;20083;-83
2023/05/15 14:44:09;;;;;;;13.05;8.68;;;23.90;56.80;;;;;;5089805;28;20036;-83
2023/05/15 14:46:36;;;;;;;14.45;7.97;;;23.40;58.00;;;;;;5090879;28;20048;-82
2023/05/15 14:49:03;;;;;;;11.13;8.05;;;23.10;59.20;;;;;;5090479;28;20051;-82
2023/05/15 14:51:28;;;;;;;14.70;8.23;;;23.10;60.30;;;;;;5073500;28;20083;-81
2023/05/15 14:53:54;;;;;;;14.57;7.57;;;23.10;60.00;;;;;;5084595;28;20102;-80
2023/05/15 14:56:21;;;;;;;12.48;7.50;;;23.00;60.50;;;;;;5081302;28;20075;-82
2023/05/15 14:58:47;;;;;;;10.73;7.90;;;22.80;61.70;;;;;;5071354;28;20044;-83
2023/05/15 15:01:14;;;;;;;14.63;7.53;;;22.50;62.40;;;;;;5073613;28;20468;-79
2023/05/15 15:03:41;;;;;;;11.45;7.28;;;22.00;63.60;;;;;;5060252;28;20047;-78
2023/05/15 15:06:07;;;;;;;11.35;6.95;;;21.80;65.30;;;;;;5089998;28;20062;-79
2023/05/15 15:08:33;;;;;;;11.10;6.78;;;21.50;66.40;;;;;;5090242;28;20040;-78
2023/05/15 15:10:59;;;;;;;10.98;6.90;;;21.30;67.70;;;;;;5073976;28;20512;-78
2023/05/15 15:13:26;;;;;;;10.95;6.50;;;21.20;70.00;;;;;;5078061;28;20079;-73
2023/05/15 15:15:52;;;;;;;8.35;5.90;;;21.10;71.20;;;;;;5073539;28;20543;-73
2023/05/15 15:18:19;;;;;;;10.25;5.57;;;21.20;74.00;;;;;;5081465;28;20040;-72
2023/05/15 15:20:45;;;;;;;9.10;5.32;;;21.30;73.90;;;;;;5084396;28;20051;-72
2023/05/15 15:23:11;;;;;;;8.95;5.97;;;21.50;73.80;;;;;;5077348;28;20102;-72
2023/05/15 15:25:37;;;;;;;9.52;5.47;;;21.60;72.80;;;;;;5103642;28;20032;-73
2023/05/15 15:28:02;;;;;;;;;;;21.40;72.30;;;;;;5096028;28;20048;-72
2023/05/15 15:30:28;;;;;;;11.27;5.38;;;21.00;77.50;;;;;;5089743;28;19920;-72
2023/05/15 15:32:54;;;;;;;9.05;5.38;;;20.70;75.80;;;;;;5091230;28;20062;-73
2023/05/15 15:35:20;;;;;;;11.25;5.30;;;20.50;78.70;;;;;;5054699;28;20047;-74
2023/05/15 15:37:46;;;;;;;8.40;5.43;;;20.20;80.90;;;;;;5088941;28;21875;-73
2023/05/15 15:40:11;;;;;;;;;;;20.00;84.90;;;;;;5085538;28;20051;-73
2023/05/15 15:42:37;;;;;;;8.57;6.00;;;19.70;90.50;;;;;;5083199;28;19985;-74
2023/05/15 15:45:03;;;;;;;8.35;5.68;;;19.40;88.90;;;;;;5081588;28;20481;-74
2023/05/15 15:47:30;;;;;;;8.90;5.40;;;19.10;91.10;;;;;;5084562;28;20044;-72
2023/05/15 15:49:57;;;;;;;9.38;5.53;;;19.00;93.20;;;;;;5082955;28;20421;-72
2023/05/15 15:52:23;;;;;;;11.57;5.68;;;18.90;94.50;;;;;;5088990;28;20533;-72
2023/05/15 15:54:48;;;;;;;;;;;18.90;96.10;;;;;;5091617;28;20131;-72
2023/05/15 15:57:15;;;;;;;10.35;6.65;;;19.00;99.90;;;;;;5087183;28;20010;-73
2023/05/15 15:59:41;;;;;;;12.00;7.53;;;19.00;96.60;;;;;;5085941;28;20051;-73
2023/05/15 16:02:07;;;;;;;;;;;19.00;98.20;;;;;;5072675;28;20040;-71
2023/05/15 16:04:34;;;;;;;12.88;7.28;;;18.90;99.90;;;;;;5089781;28;19931;-73
2023/05/15 16:07:00;;;;;;;13.90;8.07;;;18.90;99.00;;;;;;5089430;28;20504;-73
2023/05/15 16:09:25;;;;;;;;;;;18.80;99.70;;;;;;5076172;28;20044;-72
2023/05/15 16:11:51;;;;;;;13.10;7.95;;;18.60;99.90;;;;;;5090550;28;19926;-73